Saint Germain, Wisconsin
Current Conditions -  °F | °C
As of 11:35 PM on Wednesday 26 Nov 2014 (Local Time) from KEGV Reporting Station
Light Snow Light Snow  
Wind Chill:   Ceiling: 1600
Heat Index: 16°   Visibility: 5mi
Dew Point: 12°   Wind: 5mph
Humidity: 82%   Direction: 360°N
Pressure: 30.18"   Gusts: NA
Location:  45.9°N, 89.49°W
Report Text: KEGV 270535Z AUTO 36004KT 5SM -SN OVC016 M09/M11 A3018 RMK AO2 T10871113
Loading
Personal Weather Stations






























Interactive Weather Map New forecast layout! Learn more

10-Day Weather Forecast

Advertisements
Track Severe Weather on mobile